Terminal Aerodrome Forecast
Issued by NWS Portland, OR

Home | Current Version | Previous Version | Text Only | Print | Product List | Glossary On
Versions: 1 2 3 4 5 6 7 8 9 10 11 12 13 14 15 16 17 18 19 20 21 22 23 24 25 26 27 28 29 30 31
000
FTUS46 KPQR 270129 AAA
TAFEUG
TAF AMD
KEUG 270129Z 2701/2724 20006KT P6SM -RA BKN018 BKN050
      TEMPO 2701/2703 SCT018 BKN050
     FM271200 22005KT 4SM -RA BR OVC015
     FM271500 18007KT 4SM -RA BR OVC009
     FM272200 21008KT 6SM -RA BR OVC015=

USA.gov is the U.S. government's official web portal to all federal, state and local government web resources and services.